Terminal Aerodrome Forecast
Issued by NWS

Home | Current Version | Previous Version | Text Only | Print | Product List | Glossary On
Versions: 1 2 3 4 5 6 7 8 9 10 11 12 13 14
292
FTUS45 KFGZ 290544
TAFPRC
TAF
KPRC 290544Z 2906/3006 25007KT P6SM SCT060
     FM291800 25010G20KT P6SM SCT050
     FM300200 22006KT P6SM FEW070=

USA.gov is the U.S. government's official web portal to all federal, state and local government web resources and services.